GTI572 LPPT-EBBR
Flight info
| Callsign | GTI572 |
|---|---|
| Flight time | 2h 8m |
| Altitude | 34000 |
| Route | IXIDA DCT TOSDI/N0477F360 N745 ZMR N873 DELOG DCT YURZI DCT OLEBA UN873 BAZOS DCT BELDI DCT VEKIN Z173 ARVOL |
| Aircraft | B77L/H-SDE1E2E3FGHIJ2J3J4J5M1RWXY/LB1D1 |
Departure
| Time | 2026-05-07 17:24 |
|---|---|
| Airport | Lisbon Humberto Delgado Airport (LPPT) |
Arrival
| Time | 2026-05-07 19:32 |
|---|---|
| Airport | Brussels Airport (EBBR) |
| Time | Latitude | Longitude | Altitude | Speed | Heading |
|---|---|---|---|---|---|
| 2026-05-07 16:29 | 38.77978 | -9.12952 | 335 ft | 0 kts | 303° |
| 2026-05-07 17:05 | 38.77978 | -9.12951 | 335 ft | 1 kts | 303° |
| 2026-05-07 17:05 | 38.77966 | -9.12925 | 331 ft | 4 kts | 288° |
| 2026-05-07 17:05 | 38.77961 | -9.12894 | 333 ft | 4 kts | 262° |
| 2026-05-07 17:06 | 38.77968 | -9.12867 | 330 ft | 4 kts | 224° |
| 2026-05-07 17:06 | 38.77974 | -9.12861 | 330 ft | 0 kts | 213° |
| 2026-05-07 17:11 | 38.77949 | -9.12881 | 333 ft | 7 kts | 212° |
| 2026-05-07 17:11 | 38.77907 | -9.12915 | 332 ft | 7 kts | 213° |
| 2026-05-07 17:11 | 38.77865 | -9.12950 | 331 ft | 7 kts | 213° |
| 2026-05-07 17:11 | 38.77824 | -9.12985 | 330 ft | 7 kts | 213° |
| 2026-05-07 17:12 | 38.77788 | -9.13029 | 333 ft | 7 kts | 235° |
| 2026-05-07 17:12 | 38.77770 | -9.13087 | 350 ft | 7 kts | 257° |
| 2026-05-07 17:12 | 38.77759 | -9.13150 | 342 ft | 7 kts | 257° |
| 2026-05-07 17:12 | 38.77749 | -9.13212 | 348 ft | 7 kts | 258° |
| 2026-05-07 17:13 | 38.77738 | -9.13278 | 344 ft | 9 kts | 258° |
| 2026-05-07 17:13 | 38.77715 | -9.13351 | 354 ft | 9 kts | 223° |
| 2026-05-07 17:13 | 38.77659 | -9.13387 | 355 ft | 9 kts | 201° |
| 2026-05-07 17:13 | 38.77602 | -9.13417 | 356 ft | 9 kts | 202° |
| 2026-05-07 17:14 | 38.77549 | -9.13445 | 357 ft | 7 kts | 203° |
| 2026-05-07 17:14 | 38.77507 | -9.13474 | 358 ft | 7 kts | 214° |
| 2026-05-07 17:14 | 38.77469 | -9.13512 | 356 ft | 7 kts | 219° |
| 2026-05-07 17:14 | 38.77426 | -9.13536 | 359 ft | 7 kts | 181° |
| 2026-05-07 17:15 | 38.77375 | -9.13525 | 359 ft | 8 kts | 166° |
| 2026-05-07 17:15 | 38.77319 | -9.13513 | 355 ft | 8 kts | 187° |
| 2026-05-07 17:15 | 38.77285 | -9.13570 | 356 ft | 8 kts | 252° |
| 2026-05-07 17:15 | 38.77272 | -9.13643 | 360 ft | 8 kts | 258° |
| 2026-05-07 17:16 | 38.77260 | -9.13717 | 364 ft | 8 kts | 258° |
| 2026-05-07 17:16 | 38.77248 | -9.13789 | 362 ft | 8 kts | 258° |
| 2026-05-07 17:16 | 38.77219 | -9.13849 | 363 ft | 8 kts | 215° |
| 2026-05-07 17:16 | 38.77156 | -9.13886 | 366 ft | 12 kts | 202° |
| 2026-05-07 17:17 | 38.77069 | -9.13931 | 362 ft | 15 kts | 202° |
| 2026-05-07 17:17 | 38.76967 | -9.13986 | 357 ft | 17 kts | 202° |
| 2026-05-07 17:17 | 38.76854 | -9.14047 | 358 ft | 18 kts | 202° |
| 2026-05-07 17:17 | 38.76737 | -9.14109 | 357 ft | 17 kts | 202° |
| 2026-05-07 17:18 | 38.76645 | -9.14158 | 349 ft | 11 kts | 202° |
| 2026-05-07 17:18 | 38.76590 | -9.14190 | 353 ft | 4 kts | 217° |
| 2026-05-07 17:18 | 38.76588 | -9.14223 | 353 ft | 3 kts | 290° |
| 2026-05-07 17:18 | 38.76595 | -9.14243 | 351 ft | 1 kts | 294° |
| 2026-05-07 17:19 | 38.76597 | -9.14249 | 351 ft | 0 kts | 293° |
| 2026-05-07 17:22 | 38.76602 | -9.14264 | 348 ft | 6 kts | 294° |
| 2026-05-07 17:22 | 38.76627 | -9.14336 | 335 ft | 9 kts | 293° |
| 2026-05-07 17:22 | 38.76663 | -9.14372 | 336 ft | 6 kts | 355° |
| 2026-05-07 17:22 | 38.76702 | -9.14358 | 353 ft | 6 kts | 22° |
| 2026-05-07 17:23 | 38.76819 | -9.14295 | 354 ft | 42 kts | 22° |
| 2026-05-07 17:23 | 38.77316 | -9.14030 | 366 ft | 110 kts | 22° |
| 2026-05-07 17:23 | 38.78214 | -9.13551 | 377 ft | 166 kts | 22° |
| 2026-05-07 17:23 | 38.79350 | -9.12916 | 680 ft | 180 kts | 20° |
| 2026-05-07 17:24 | 38.80472 | -9.12171 | 1244 ft | 185 kts | 24° |
| 2026-05-07 17:24 | 38.81632 | -9.11417 | 1747 ft | 194 kts | 23° |
| 2026-05-07 17:24 | 38.82894 | -9.10543 | 2023 ft | 219 kts | 25° |
| 2026-05-07 17:24 | 38.84317 | -9.09488 | 2224 ft | 251 kts | 27° |
| 2026-05-07 17:25 | 38.85840 | -9.08341 | 2949 ft | 258 kts | 27° |
| 2026-05-07 17:25 | 38.87416 | -9.07153 | 3637 ft | 268 kts | 27° |
| 2026-05-07 17:25 | 38.89041 | -9.05930 | 4397 ft | 275 kts | 29° |
| 2026-05-07 17:25 | 38.90608 | -9.04529 | 5084 ft | 282 kts | 40° |
| 2026-05-07 17:26 | 38.92075 | -9.02850 | 5922 ft | 284 kts | 44° |
| 2026-05-07 17:26 | 38.93521 | -9.01107 | 6753 ft | 286 kts | 45° |
| 2026-05-07 17:26 | 38.94981 | -8.99345 | 7497 ft | 291 kts | 45° |
| 2026-05-07 17:26 | 38.96473 | -8.97560 | 8260 ft | 295 kts | 45° |
| 2026-05-07 17:27 | 38.97989 | -8.95759 | 8998 ft | 299 kts | 44° |
| 2026-05-07 17:27 | 38.99530 | -8.93941 | 9762 ft | 303 kts | 44° |
| 2026-05-07 17:27 | 39.01099 | -8.92095 | 10380 ft | 311 kts | 44° |
| 2026-05-07 17:27 | 39.02785 | -8.90115 | 10614 ft | 336 kts | 44° |
| 2026-05-07 17:28 | 39.04554 | -8.88039 | 10813 ft | 361 kts | 44° |
| 2026-05-07 17:28 | 39.06481 | -8.85780 | 11011 ft | 386 kts | 44° |
| 2026-05-07 17:28 | 39.08512 | -8.83403 | 11500 ft | 401 kts | 44° |
| 2026-05-07 17:28 | 39.10599 | -8.80960 | 12303 ft | 409 kts | 44° |
| 2026-05-07 17:29 | 39.12714 | -8.78480 | 13215 ft | 414 kts | 44° |
| 2026-05-07 17:29 | 39.14857 | -8.75966 | 14082 ft | 419 kts | 44° |
| 2026-05-07 17:29 | 39.17018 | -8.73414 | 14849 ft | 425 kts | 45° |
| 2026-05-07 17:29 | 39.19094 | -8.70669 | 15593 ft | 431 kts | 49° |
| 2026-05-07 17:30 | 39.21090 | -8.67746 | 16333 ft | 437 kts | 50° |
| 2026-05-07 17:30 | 39.23077 | -8.64735 | 17090 ft | 443 kts | 51° |
| 2026-05-07 17:30 | 39.25083 | -8.61688 | 17846 ft | 449 kts | 50° |
| 2026-05-07 17:30 | 39.27101 | -8.58647 | 18483 ft | 455 kts | 50° |
| 2026-05-07 17:31 | 39.29184 | -8.55541 | 19095 ft | 460 kts | 49° |
| 2026-05-07 17:31 | 39.31300 | -8.52407 | 19692 ft | 466 kts | 49° |
| 2026-05-07 17:31 | 39.33450 | -8.49240 | 20279 ft | 472 kts | 49° |
| 2026-05-07 17:31 | 39.35631 | -8.46032 | 20841 ft | 477 kts | 49° |
| 2026-05-07 17:32 | 39.37864 | -8.42744 | 21370 ft | 484 kts | 49° |
| 2026-05-07 17:32 | 39.40097 | -8.39452 | 21870 ft | 490 kts | 49° |
| 2026-05-07 17:32 | 39.42325 | -8.36162 | 22402 ft | 495 kts | 49° |
| 2026-05-07 17:32 | 39.43866 | -8.33889 | 22758 ft | 498 kts | 48° |
| 2026-05-07 17:33 | 39.47041 | -8.29554 | 23422 ft | 505 kts | 44° |
| 2026-05-07 17:33 | 39.49558 | -8.26344 | 23873 ft | 509 kts | 43° |
| 2026-05-07 17:33 | 39.52117 | -8.23149 | 24314 ft | 513 kts | 43° |
| 2026-05-07 17:33 | 39.54692 | -8.19937 | 24806 ft | 516 kts | 43° |
| 2026-05-07 17:34 | 39.57274 | -8.16694 | 25265 ft | 519 kts | 43° |
| 2026-05-07 17:34 | 39.59862 | -8.13413 | 25698 ft | 522 kts | 43° |
| 2026-05-07 17:34 | 39.62456 | -8.10097 | 26122 ft | 525 kts | 43° |
| 2026-05-07 17:34 | 39.65058 | -8.06753 | 26530 ft | 528 kts | 43° |
| 2026-05-07 17:35 | 39.67675 | -8.03378 | 26921 ft | 531 kts | 43° |
| 2026-05-07 17:35 | 39.70299 | -7.99986 | 27292 ft | 534 kts | 43° |
| 2026-05-07 17:35 | 39.72942 | -7.96568 | 27651 ft | 537 kts | 43° |
| 2026-05-07 17:35 | 39.75597 | -7.93131 | 27999 ft | 539 kts | 43° |
| 2026-05-07 17:36 | 39.78265 | -7.89672 | 28317 ft | 542 kts | 43° |
| 2026-05-07 17:36 | 39.80936 | -7.86205 | 28697 ft | 543 kts | 42° |
| 2026-05-07 17:36 | 39.83608 | -7.82736 | 29164 ft | 542 kts | 42° |
| 2026-05-07 17:36 | 39.85373 | -7.80443 | 29503 ft | 542 kts | 42° |
| 2026-05-07 17:37 | 39.88034 | -7.76981 | 29979 ft | 540 kts | 42° |
| 2026-05-07 17:37 | 39.90692 | -7.73521 | 30333 ft | 541 kts | 42° |
| 2026-05-07 17:37 | 39.93356 | -7.70051 | 30684 ft | 541 kts | 42° |
| 2026-05-07 17:37 | 39.96013 | -7.66587 | 31063 ft | 540 kts | 41° |
| 2026-05-07 17:38 | 39.98664 | -7.63126 | 31469 ft | 539 kts | 41° |
| 2026-05-07 17:38 | 40.01308 | -7.59671 | 31846 ft | 538 kts | 41° |
| 2026-05-07 17:38 | 40.03952 | -7.56210 | 32215 ft | 538 kts | 41° |
| 2026-05-07 17:38 | 40.06591 | -7.52752 | 32593 ft | 537 kts | 41° |
| 2026-05-07 17:39 | 40.09223 | -7.49297 | 32947 ft | 536 kts | 41° |
| 2026-05-07 17:39 | 40.11849 | -7.45847 | 33299 ft | 535 kts | 41° |
| 2026-05-07 17:39 | 40.14472 | -7.42399 | 33664 ft | 535 kts | 41° |
| 2026-05-07 17:39 | 40.17092 | -7.38950 | 33993 ft | 534 kts | 41° |
| 2026-05-07 17:40 | 40.19483 | -7.35800 | 34260 ft | 533 kts | 41° |
| 2026-05-07 17:40 | 40.22094 | -7.32355 | 34522 ft | 533 kts | 41° |
| 2026-05-07 17:40 | 40.24705 | -7.28908 | 34766 ft | 533 kts | 41° |
| 2026-05-07 17:40 | 40.27318 | -7.25452 | 35040 ft | 533 kts | 41° |
| 2026-05-07 17:41 | 40.29920 | -7.22005 | 35329 ft | 532 kts | 41° |
| 2026-05-07 17:41 | 40.32524 | -7.18553 | 35601 ft | 532 kts | 41° |
| 2026-05-07 17:41 | 40.35124 | -7.15103 | 35768 ft | 533 kts | 41° |
| 2026-05-07 17:41 | 40.37736 | -7.11634 | 35826 ft | 535 kts | 41° |
| 2026-05-07 17:42 | 40.42951 | -7.04693 | 35846 ft | 532 kts | 41° |
| 2026-05-07 17:42 | 40.48077 | -6.97850 | 35854 ft | 527 kts | 41° |
| 2026-05-07 17:43 | 40.53209 | -6.90987 | 35853 ft | 526 kts | 41° |
| 2026-05-07 17:43 | 40.58335 | -6.84120 | 35853 ft | 525 kts | 41° |
| 2026-05-07 17:44 | 40.63431 | -6.77275 | 35858 ft | 524 kts | 41° |
| 2026-05-07 17:44 | 40.68531 | -6.70407 | 35862 ft | 525 kts | 41° |
| 2026-05-07 17:45 | 40.73655 | -6.63492 | 35860 ft | 525 kts | 41° |
| 2026-05-07 17:45 | 40.78760 | -6.56585 | 35860 ft | 526 kts | 41° |
| 2026-05-07 17:46 | 40.83829 | -6.49711 | 35849 ft | 526 kts | 41° |
| 2026-05-07 17:46 | 40.88932 | -6.42773 | 35861 ft | 526 kts | 41° |
| 2026-05-07 17:47 | 40.94029 | -6.35828 | 35863 ft | 526 kts | 41° |
| 2026-05-07 17:47 | 40.99138 | -6.28876 | 35865 ft | 526 kts | 39° |
| 2026-05-07 17:48 | 41.04483 | -6.22327 | 35862 ft | 522 kts | 36° |
| 2026-05-07 17:48 | 41.09882 | -6.15981 | 35869 ft | 522 kts | 36° |
| 2026-05-07 17:49 | 41.15335 | -6.09521 | 35878 ft | 522 kts | 36° |
| 2026-05-07 17:49 | 41.20727 | -6.03057 | 35879 ft | 522 kts | 37° |
| 2026-05-07 17:50 | 41.26079 | -5.96612 | 35873 ft | 522 kts | 36° |
| 2026-05-07 17:50 | 41.31460 | -5.90122 | 35883 ft | 522 kts | 36° |
| 2026-05-07 17:51 | 41.36840 | -5.83621 | 35874 ft | 522 kts | 36° |
| 2026-05-07 17:51 | 41.42209 | -5.77118 | 35882 ft | 522 kts | 37° |
| 2026-05-07 17:52 | 41.47576 | -5.70604 | 35881 ft | 521 kts | 36° |
| 2026-05-07 17:52 | 41.53224 | -5.64685 | 35886 ft | 511 kts | 26° |
| 2026-05-07 17:53 | 41.59418 | -5.60220 | 35884 ft | 501 kts | 17° |
| 2026-05-07 17:53 | 41.65846 | -5.56635 | 35889 ft | 500 kts | 15° |
| 2026-05-07 17:54 | 41.72311 | -5.53075 | 35884 ft | 499 kts | 16° |
| 2026-05-07 17:54 | 41.78677 | -5.49506 | 35884 ft | 498 kts | 17° |
| 2026-05-07 17:55 | 41.85057 | -5.45886 | 35888 ft | 497 kts | 17° |
| 2026-05-07 17:55 | 41.91427 | -5.42259 | 35886 ft | 497 kts | 17° |
| 2026-05-07 17:56 | 41.97780 | -5.38637 | 35888 ft | 496 kts | 17° |
| 2026-05-07 17:56 | 42.04128 | -5.35011 | 35890 ft | 496 kts | 17° |
| 2026-05-07 17:57 | 42.09444 | -5.31969 | 35892 ft | 495 kts | 17° |
| 2026-05-07 17:57 | 42.16817 | -5.27741 | 35896 ft | 496 kts | 18° |
| 2026-05-07 17:58 | 42.23166 | -5.24091 | 35883 ft | 496 kts | 18° |
| 2026-05-07 17:58 | 42.29518 | -5.20431 | 35880 ft | 497 kts | 18° |
| 2026-05-07 17:59 | 42.35874 | -5.16761 | 35883 ft | 497 kts | 18° |
| 2026-05-07 17:59 | 42.42238 | -5.13078 | 35891 ft | 497 kts | 18° |
| 2026-05-07 18:00 | 42.48609 | -5.09382 | 35893 ft | 498 kts | 18° |
| 2026-05-07 18:00 | 42.54974 | -5.05682 | 35893 ft | 498 kts | 18° |
| 2026-05-07 18:01 | 42.61345 | -5.01970 | 35896 ft | 498 kts | 19° |
| 2026-05-07 18:01 | 42.67717 | -4.98249 | 35901 ft | 499 kts | 19° |
| 2026-05-07 18:02 | 42.77278 | -4.92653 | 35895 ft | 499 kts | 19° |
| 2026-05-07 18:03 | 42.83650 | -4.88911 | 35893 ft | 498 kts | 19° |
| 2026-05-07 18:03 | 42.90012 | -4.85166 | 35909 ft | 498 kts | 19° |
| 2026-05-07 18:04 | 42.96379 | -4.81412 | 35913 ft | 498 kts | 19° |
| 2026-05-07 18:04 | 43.02746 | -4.77649 | 35904 ft | 499 kts | 20° |
| 2026-05-07 18:05 | 43.09115 | -4.73874 | 35907 ft | 499 kts | 20° |
| 2026-05-07 18:05 | 43.15481 | -4.70093 | 35895 ft | 499 kts | 20° |
| 2026-05-07 18:06 | 43.21846 | -4.66303 | 35886 ft | 498 kts | 20° |
| 2026-05-07 18:06 | 43.28192 | -4.62515 | 35905 ft | 497 kts | 20° |
| 2026-05-07 18:07 | 43.34491 | -4.58749 | 35900 ft | 497 kts | 20° |
| 2026-05-07 18:07 | 43.40830 | -4.54951 | 35887 ft | 497 kts | 20° |
| 2026-05-07 18:08 | 43.47179 | -4.51137 | 35882 ft | 498 kts | 20° |
| 2026-05-07 18:08 | 43.53526 | -4.47317 | 35884 ft | 498 kts | 20° |
| 2026-05-07 18:09 | 43.59884 | -4.43485 | 35887 ft | 499 kts | 20° |
| 2026-05-07 18:09 | 43.66245 | -4.39641 | 35887 ft | 500 kts | 20° |
| 2026-05-07 18:10 | 43.72625 | -4.35776 | 35891 ft | 501 kts | 20° |
| 2026-05-07 18:10 | 43.79007 | -4.31900 | 35889 ft | 501 kts | 20° |
| 2026-05-07 18:11 | 43.85398 | -4.28010 | 35890 ft | 502 kts | 20° |
| 2026-05-07 18:11 | 43.91800 | -4.24103 | 35887 ft | 503 kts | 21° |
| 2026-05-07 18:12 | 43.98206 | -4.20185 | 35894 ft | 503 kts | 21° |
| 2026-05-07 18:12 | 44.04618 | -4.16254 | 35898 ft | 504 kts | 21° |
| 2026-05-07 18:13 | 44.11035 | -4.12311 | 35897 ft | 504 kts | 21° |
| 2026-05-07 18:13 | 44.17454 | -4.08356 | 35900 ft | 505 kts | 21° |
| 2026-05-07 18:14 | 44.23881 | -4.04387 | 35900 ft | 505 kts | 21° |
| 2026-05-07 18:14 | 44.30307 | -4.00410 | 35905 ft | 505 kts | 21° |
| 2026-05-07 18:15 | 44.36604 | -3.96028 | 35915 ft | 507 kts | 27° |
| 2026-05-07 18:15 | 44.42734 | -3.91139 | 35908 ft | 508 kts | 28° |
| 2026-05-07 18:16 | 44.48851 | -3.86204 | 35913 ft | 508 kts | 27° |
| 2026-05-07 18:16 | 44.54988 | -3.81289 | 35917 ft | 508 kts | 27° |
| 2026-05-07 18:17 | 44.61098 | -3.76418 | 35916 ft | 508 kts | 27° |
| 2026-05-07 18:17 | 44.67291 | -3.71474 | 35919 ft | 509 kts | 27° |
| 2026-05-07 18:18 | 44.73399 | -3.66584 | 35922 ft | 509 kts | 27° |
| 2026-05-07 18:18 | 44.79589 | -3.61613 | 35924 ft | 509 kts | 28° |
| 2026-05-07 18:19 | 44.85741 | -3.56661 | 35924 ft | 509 kts | 28° |
| 2026-05-07 18:19 | 44.91897 | -3.51692 | 35927 ft | 510 kts | 28° |
| 2026-05-07 18:20 | 44.98052 | -3.46712 | 35929 ft | 510 kts | 28° |
| 2026-05-07 18:20 | 45.04209 | -3.41718 | 35927 ft | 510 kts | 28° |
| 2026-05-07 18:21 | 45.10368 | -3.36710 | 35932 ft | 511 kts | 28° |
| 2026-05-07 18:21 | 45.15490 | -3.32536 | 35933 ft | 511 kts | 28° |
| 2026-05-07 18:22 | 45.22653 | -3.26683 | 35938 ft | 511 kts | 28° |
| 2026-05-07 18:22 | 45.27814 | -3.22455 | 35942 ft | 512 kts | 28° |
| 2026-05-07 18:23 | 45.33979 | -3.17393 | 35944 ft | 512 kts | 28° |
| 2026-05-07 18:23 | 45.40144 | -3.12319 | 35941 ft | 512 kts | 28° |
| 2026-05-07 18:24 | 45.46311 | -3.07229 | 35946 ft | 512 kts | 28° |
| 2026-05-07 18:24 | 45.52477 | -3.02128 | 35951 ft | 513 kts | 28° |
| 2026-05-07 18:25 | 45.58648 | -2.97009 | 35949 ft | 513 kts | 28° |
| 2026-05-07 18:25 | 45.64819 | -2.91877 | 35952 ft | 513 kts | 29° |
| 2026-05-07 18:26 | 45.70995 | -2.86728 | 35950 ft | 514 kts | 29° |
| 2026-05-07 18:26 | 45.77172 | -2.81564 | 35953 ft | 514 kts | 29° |
| 2026-05-07 18:27 | 45.83349 | -2.76388 | 35954 ft | 515 kts | 29° |
| 2026-05-07 18:27 | 45.89528 | -2.71195 | 35956 ft | 515 kts | 29° |
| 2026-05-07 18:28 | 45.95715 | -2.65983 | 35957 ft | 516 kts | 29° |
| 2026-05-07 18:28 | 46.01901 | -2.60756 | 35963 ft | 516 kts | 29° |
| 2026-05-07 18:29 | 46.08092 | -2.55512 | 35958 ft | 516 kts | 29° |
| 2026-05-07 18:29 | 46.14241 | -2.50291 | 35962 ft | 517 kts | 29° |
| 2026-05-07 18:30 | 46.20582 | -2.45437 | 35957 ft | 515 kts | 22° |
| 2026-05-07 18:30 | 46.27169 | -2.41335 | 35962 ft | 516 kts | 21° |
| 2026-05-07 18:31 | 46.33776 | -2.37284 | 35960 ft | 516 kts | 22° |
| 2026-05-07 18:31 | 46.40368 | -2.33165 | 35959 ft | 516 kts | 22° |
| 2026-05-07 18:32 | 46.46954 | -2.28996 | 35961 ft | 516 kts | 22° |
| 2026-05-07 18:32 | 46.53537 | -2.24811 | 35963 ft | 517 kts | 22° |
| 2026-05-07 18:33 | 46.60131 | -2.20613 | 35966 ft | 517 kts | 22° |
| 2026-05-07 18:33 | 46.66719 | -2.16409 | 35967 ft | 517 kts | 22° |
| 2026-05-07 18:34 | 46.73308 | -2.12195 | 35965 ft | 517 kts | 22° |
| 2026-05-07 18:34 | 46.79896 | -2.07970 | 35964 ft | 517 kts | 22° |
| 2026-05-07 18:35 | 46.86434 | -2.03765 | 35960 ft | 517 kts | 22° |
| 2026-05-07 18:35 | 46.93023 | -1.99515 | 35966 ft | 517 kts | 22° |
| 2026-05-07 18:36 | 46.99608 | -1.95257 | 35964 ft | 518 kts | 22° |
| 2026-05-07 18:36 | 47.06197 | -1.90984 | 35968 ft | 517 kts | 22° |
| 2026-05-07 18:37 | 47.12776 | -1.86692 | 35966 ft | 517 kts | 24° |
| 2026-05-07 18:37 | 47.19004 | -1.81383 | 35962 ft | 519 kts | 36° |
| 2026-05-07 18:38 | 47.24729 | -1.74916 | 35957 ft | 519 kts | 37° |
| 2026-05-07 18:38 | 47.30468 | -1.68473 | 35968 ft | 519 kts | 36° |
| 2026-05-07 18:39 | 47.35895 | -1.61460 | 35968 ft | 519 kts | 46° |
| 2026-05-07 18:39 | 47.40463 | -1.53215 | 35973 ft | 519 kts | 53° |
| 2026-05-07 18:40 | 47.44844 | -1.44738 | 35969 ft | 519 kts | 53° |
| 2026-05-07 18:40 | 47.49255 | -1.36273 | 35965 ft | 520 kts | 52° |
| 2026-05-07 18:41 | 47.53691 | -1.27827 | 35970 ft | 520 kts | 52° |
| 2026-05-07 18:41 | 47.58131 | -1.19367 | 35972 ft | 520 kts | 52° |
| 2026-05-07 18:42 | 47.62533 | -1.10944 | 35975 ft | 521 kts | 52° |
| 2026-05-07 18:42 | 47.66962 | -1.02437 | 35976 ft | 521 kts | 52° |
| 2026-05-07 18:43 | 47.71380 | -0.93926 | 35978 ft | 521 kts | 52° |
| 2026-05-07 18:43 | 47.75800 | -0.85391 | 35982 ft | 521 kts | 52° |
| 2026-05-07 18:44 | 47.80212 | -0.76853 | 35987 ft | 521 kts | 52° |
| 2026-05-07 18:44 | 47.84618 | -0.68299 | 35989 ft | 520 kts | 52° |
| 2026-05-07 18:45 | 47.89014 | -0.59736 | 35989 ft | 520 kts | 52° |
| 2026-05-07 18:45 | 47.93374 | -0.51215 | 35991 ft | 520 kts | 53° |
| 2026-05-07 18:46 | 47.97777 | -0.42581 | 35995 ft | 519 kts | 53° |
| 2026-05-07 18:46 | 48.02115 | -0.34049 | 35994 ft | 519 kts | 53° |
| 2026-05-07 18:47 | 48.06478 | -0.25446 | 35994 ft | 519 kts | 53° |
| 2026-05-07 18:47 | 48.10881 | -0.16884 | 35996 ft | 519 kts | 52° |
| 2026-05-07 18:48 | 48.15321 | -0.08361 | 35996 ft | 519 kts | 52° |
| 2026-05-07 18:48 | 48.19749 | 0.00187 | 35996 ft | 519 kts | 52° |
| 2026-05-07 18:49 | 48.24162 | 0.08760 | 36001 ft | 519 kts | 52° |
| 2026-05-07 18:49 | 48.28566 | 0.17351 | 35999 ft | 519 kts | 52° |
| 2026-05-07 18:50 | 48.32964 | 0.25953 | 36003 ft | 519 kts | 52° |
| 2026-05-07 18:50 | 48.37358 | 0.34572 | 36002 ft | 519 kts | 52° |
| 2026-05-07 18:51 | 48.41760 | 0.43192 | 36004 ft | 519 kts | 52° |
| 2026-05-07 18:51 | 48.46159 | 0.51711 | 36004 ft | 518 kts | 52° |
| 2026-05-07 18:52 | 48.50622 | 0.60240 | 36011 ft | 518 kts | 48° |
| 2026-05-07 18:52 | 48.55786 | 0.67775 | 36011 ft | 516 kts | 37° |
| 2026-05-07 18:53 | 48.61545 | 0.74246 | 36017 ft | 515 kts | 35° |
| 2026-05-07 18:53 | 48.67318 | 0.80685 | 36014 ft | 515 kts | 36° |
| 2026-05-07 18:54 | 48.73045 | 0.87224 | 36020 ft | 515 kts | 36° |
| 2026-05-07 18:54 | 48.78759 | 0.93787 | 36017 ft | 515 kts | 36° |
| 2026-05-07 18:55 | 48.84467 | 1.00367 | 36022 ft | 515 kts | 36° |
| 2026-05-07 18:55 | 48.90128 | 1.06912 | 36022 ft | 514 kts | 36° |
| 2026-05-07 18:56 | 48.95815 | 1.13507 | 36024 ft | 514 kts | 36° |
| 2026-05-07 18:56 | 49.01498 | 1.20113 | 36025 ft | 514 kts | 36° |
| 2026-05-07 18:57 | 49.06902 | 1.27232 | 36026 ft | 514 kts | 43° |
| 2026-05-07 18:57 | 49.12053 | 1.34803 | 36026 ft | 514 kts | 43° |
| 2026-05-07 18:58 | 49.17215 | 1.42371 | 36027 ft | 514 kts | 43° |
| 2026-05-07 18:58 | 49.22356 | 1.49842 | 36010 ft | 500 kts | 43° |
| 2026-05-07 18:58 | 49.24845 | 1.53466 | 36018 ft | 488 kts | 43° |
| 2026-05-07 18:59 | 49.27292 | 1.57034 | 36028 ft | 485 kts | 43° |
| 2026-05-07 18:59 | 49.32180 | 1.64153 | 36038 ft | 484 kts | 43° |
| 2026-05-07 19:00 | 49.37028 | 1.71230 | 36047 ft | 484 kts | 43° |
| 2026-05-07 19:00 | 49.41891 | 1.78355 | 35929 ft | 481 kts | 43° |
| 2026-05-07 19:00 | 49.44309 | 1.81907 | 35644 ft | 481 kts | 43° |
| 2026-05-07 19:01 | 49.46733 | 1.85471 | 35347 ft | 482 kts | 43° |
| 2026-05-07 19:01 | 49.51523 | 1.92529 | 35222 ft | 472 kts | 43° |
| 2026-05-07 19:01 | 49.53669 | 1.95698 | 35085 ft | 470 kts | 43° |
| 2026-05-07 19:02 | 49.56029 | 1.99184 | 34820 ft | 471 kts | 43° |
| 2026-05-07 19:02 | 49.58421 | 2.02723 | 34553 ft | 471 kts | 43° |
| 2026-05-07 19:02 | 49.60783 | 2.06220 | 34320 ft | 471 kts | 43° |
| 2026-05-07 19:02 | 49.63112 | 2.09677 | 34151 ft | 469 kts | 43° |
| 2026-05-07 19:03 | 49.65454 | 2.13156 | 34098 ft | 467 kts | 43° |
| 2026-05-07 19:03 | 49.70152 | 2.20151 | 34067 ft | 471 kts | 43° |
| 2026-05-07 19:04 | 49.74867 | 2.27191 | 34063 ft | 470 kts | 43° |
| 2026-05-07 19:04 | 49.79572 | 2.34239 | 34061 ft | 468 kts | 43° |
| 2026-05-07 19:04 | 49.81923 | 2.37768 | 33945 ft | 472 kts | 43° |
| 2026-05-07 19:05 | 49.84287 | 2.41320 | 33652 ft | 474 kts | 43° |
| 2026-05-07 19:05 | 49.86645 | 2.44870 | 33387 ft | 471 kts | 43° |
| 2026-05-07 19:05 | 49.88989 | 2.48405 | 33104 ft | 469 kts | 43° |
| 2026-05-07 19:05 | 49.91296 | 2.51887 | 32847 ft | 468 kts | 43° |
| 2026-05-07 19:06 | 49.93627 | 2.55409 | 32580 ft | 467 kts | 43° |
| 2026-05-07 19:06 | 49.98307 | 2.62506 | 32059 ft | 467 kts | 43° |
| 2026-05-07 19:06 | 50.00591 | 2.65987 | 31806 ft | 467 kts | 43° |
| 2026-05-07 19:07 | 50.02910 | 2.69530 | 31430 ft | 469 kts | 43° |
| 2026-05-07 19:07 | 50.05259 | 2.73122 | 30516 ft | 476 kts | 43° |
| 2026-05-07 19:07 | 50.07624 | 2.76745 | 29679 ft | 478 kts | 44° |
| 2026-05-07 19:07 | 50.09976 | 2.80355 | 29106 ft | 472 kts | 44° |
| 2026-05-07 19:08 | 50.12306 | 2.83936 | 28567 ft | 466 kts | 44° |
| 2026-05-07 19:08 | 50.14598 | 2.87462 | 28025 ft | 460 kts | 44° |
| 2026-05-07 19:08 | 50.16862 | 2.90950 | 27504 ft | 455 kts | 44° |
| 2026-05-07 19:08 | 50.19101 | 2.94403 | 26986 ft | 451 kts | 44° |
| 2026-05-07 19:09 | 50.21322 | 2.97833 | 26472 ft | 446 kts | 44° |
| 2026-05-07 19:09 | 50.23517 | 3.01229 | 25972 ft | 442 kts | 44° |
| 2026-05-07 19:09 | 50.25697 | 3.04606 | 25485 ft | 439 kts | 44° |
| 2026-05-07 19:09 | 50.27848 | 3.07940 | 25039 ft | 434 kts | 44° |
| 2026-05-07 19:10 | 50.29996 | 3.11276 | 24373 ft | 436 kts | 44° |
| 2026-05-07 19:10 | 50.32140 | 3.14610 | 23847 ft | 433 kts | 44° |
| 2026-05-07 19:10 | 50.33551 | 3.16806 | 23544 ft | 431 kts | 44° |
| 2026-05-07 19:10 | 50.35666 | 3.20103 | 23018 ft | 427 kts | 44° |
| 2026-05-07 19:11 | 50.37762 | 3.23374 | 22560 ft | 422 kts | 44° |
| 2026-05-07 19:11 | 50.39829 | 3.26604 | 22151 ft | 417 kts | 44° |
| 2026-05-07 19:11 | 50.41851 | 3.29764 | 22061 ft | 403 kts | 44° |
| 2026-05-07 19:11 | 50.43821 | 3.32833 | 22084 ft | 400 kts | 44° |
| 2026-05-07 19:12 | 50.45802 | 3.35920 | 22086 ft | 402 kts | 44° |
| 2026-05-07 19:12 | 50.47786 | 3.38968 | 21919 ft | 397 kts | 41° |
| 2026-05-07 19:12 | 50.49843 | 3.41827 | 21543 ft | 393 kts | 39° |
| 2026-05-07 19:12 | 50.51929 | 3.44574 | 21127 ft | 390 kts | 38° |
| 2026-05-07 19:13 | 50.54006 | 3.47302 | 20697 ft | 387 kts | 39° |
| 2026-05-07 19:13 | 50.56057 | 3.50024 | 20266 ft | 385 kts | 39° |
| 2026-05-07 19:13 | 50.58092 | 3.52732 | 19858 ft | 382 kts | 39° |
| 2026-05-07 19:13 | 50.60118 | 3.55432 | 19441 ft | 380 kts | 39° |
| 2026-05-07 19:14 | 50.62126 | 3.58111 | 19041 ft | 377 kts | 39° |
| 2026-05-07 19:14 | 50.64124 | 3.60778 | 18637 ft | 375 kts | 39° |
| 2026-05-07 19:14 | 50.66104 | 3.63426 | 18274 ft | 371 kts | 39° |
| 2026-05-07 19:14 | 50.68038 | 3.66016 | 18192 ft | 359 kts | 39° |
| 2026-05-07 19:15 | 50.69910 | 3.68524 | 18084 ft | 347 kts | 39° |
| 2026-05-07 19:15 | 50.71714 | 3.70945 | 17990 ft | 335 kts | 39° |
| 2026-05-07 19:15 | 50.73458 | 3.73285 | 17810 ft | 322 kts | 39° |
| 2026-05-07 19:15 | 50.75138 | 3.75543 | 17293 ft | 314 kts | 39° |
| 2026-05-07 19:16 | 50.76796 | 3.77770 | 16628 ft | 311 kts | 39° |
| 2026-05-07 19:16 | 50.78442 | 3.79985 | 15969 ft | 310 kts | 40° |
| 2026-05-07 19:16 | 50.80081 | 3.82192 | 15359 ft | 311 kts | 40° |
| 2026-05-07 19:16 | 50.81724 | 3.84409 | 15013 ft | 309 kts | 40° |
| 2026-05-07 19:17 | 50.83361 | 3.86618 | 14595 ft | 310 kts | 40° |
| 2026-05-07 19:17 | 50.85015 | 3.88850 | 14171 ft | 314 kts | 40° |
| 2026-05-07 19:17 | 50.86677 | 3.91098 | 13867 ft | 314 kts | 40° |
| 2026-05-07 19:17 | 50.88331 | 3.93340 | 13533 ft | 311 kts | 40° |
| 2026-05-07 19:18 | 50.89945 | 3.95528 | 13238 ft | 308 kts | 40° |
| 2026-05-07 19:18 | 50.91562 | 3.97718 | 12944 ft | 304 kts | 40° |
| 2026-05-07 19:18 | 50.92920 | 4.00207 | 12635 ft | 298 kts | 64° |
| 2026-05-07 19:18 | 50.93678 | 4.03263 | 12409 ft | 302 kts | 71° |
| 2026-05-07 19:19 | 50.94352 | 4.06273 | 12144 ft | 308 kts | 71° |
| 2026-05-07 19:19 | 50.95072 | 4.09477 | 11852 ft | 308 kts | 70° |
| 2026-05-07 19:19 | 50.95789 | 4.12662 | 11555 ft | 304 kts | 70° |
| 2026-05-07 19:19 | 50.96497 | 4.15790 | 11273 ft | 299 kts | 70° |
| 2026-05-07 19:20 | 50.97195 | 4.18866 | 11004 ft | 295 kts | 70° |
| 2026-05-07 19:20 | 50.97889 | 4.21924 | 10738 ft | 294 kts | 70° |
| 2026-05-07 19:20 | 50.98583 | 4.24980 | 10469 ft | 294 kts | 70° |
| 2026-05-07 19:20 | 50.99278 | 4.28042 | 10200 ft | 295 kts | 70° |
| 2026-05-07 19:21 | 50.99969 | 4.31096 | 9918 ft | 295 kts | 70° |
| 2026-05-07 19:21 | 51.00661 | 4.34155 | 9625 ft | 294 kts | 70° |
| 2026-05-07 19:21 | 51.01354 | 4.37212 | 9334 ft | 294 kts | 70° |
| 2026-05-07 19:21 | 51.02042 | 4.40254 | 9059 ft | 292 kts | 70° |
| 2026-05-07 19:22 | 51.02725 | 4.43283 | 8766 ft | 290 kts | 70° |
| 2026-05-07 19:22 | 51.03402 | 4.46282 | 8483 ft | 287 kts | 70° |
| 2026-05-07 19:22 | 51.04071 | 4.49252 | 8202 ft | 283 kts | 70° |
| 2026-05-07 19:22 | 51.04731 | 4.52188 | 7928 ft | 279 kts | 70° |
| 2026-05-07 19:23 | 51.05377 | 4.55070 | 7663 ft | 275 kts | 71° |
| 2026-05-07 19:23 | 51.06017 | 4.57928 | 7425 ft | 273 kts | 71° |
| 2026-05-07 19:23 | 51.06645 | 4.60738 | 7175 ft | 267 kts | 71° |
| 2026-05-07 19:23 | 51.07260 | 4.63486 | 6933 ft | 260 kts | 71° |
| 2026-05-07 19:24 | 51.07857 | 4.66158 | 6703 ft | 253 kts | 71° |
| 2026-05-07 19:24 | 51.08439 | 4.68766 | 6472 ft | 246 kts | 71° |
| 2026-05-07 19:24 | 51.08994 | 4.71265 | 6237 ft | 241 kts | 71° |
| 2026-05-07 19:24 | 51.09557 | 4.73798 | 6030 ft | 240 kts | 71° |
| 2026-05-07 19:25 | 51.10111 | 4.76298 | 5801 ft | 239 kts | 71° |
| 2026-05-07 19:25 | 51.10659 | 4.78795 | 5586 ft | 237 kts | 73° |
| 2026-05-07 19:25 | 51.10785 | 4.81323 | 5338 ft | 226 kts | 105° |
| 2026-05-07 19:25 | 51.10061 | 4.83391 | 5152 ft | 215 kts | 136° |
| 2026-05-07 19:26 | 51.08842 | 4.84743 | 4967 ft | 216 kts | 157° |
| 2026-05-07 19:26 | 51.07354 | 4.84957 | 4551 ft | 218 kts | 199° |
| 2026-05-07 19:26 | 51.06091 | 4.83819 | 4410 ft | 205 kts | 213° |
| 2026-05-07 19:26 | 51.04913 | 4.82581 | 4146 ft | 201 kts | 212° |
| 2026-05-07 19:27 | 51.03762 | 4.81377 | 3923 ft | 195 kts | 212° |
| 2026-05-07 19:27 | 51.02636 | 4.80216 | 3730 ft | 192 kts | 212° |
| 2026-05-07 19:27 | 51.01511 | 4.79058 | 3605 ft | 194 kts | 212° |
| 2026-05-07 19:27 | 51.00376 | 4.77883 | 3397 ft | 195 kts | 212° |
| 2026-05-07 19:28 | 50.99240 | 4.76703 | 3211 ft | 195 kts | 214° |
| 2026-05-07 19:28 | 50.98395 | 4.75098 | 2995 ft | 191 kts | 246° |
| 2026-05-07 19:28 | 50.97874 | 4.73148 | 2861 ft | 195 kts | 245° |
| 2026-05-07 19:28 | 50.97302 | 4.71192 | 2690 ft | 195 kts | 244° |
| 2026-05-07 19:29 | 50.96729 | 4.69235 | 2485 ft | 195 kts | 245° |
| 2026-05-07 19:29 | 50.96167 | 4.67301 | 2301 ft | 191 kts | 245° |
| 2026-05-07 19:29 | 50.95620 | 4.65418 | 2114 ft | 183 kts | 245° |
| 2026-05-07 19:29 | 50.95101 | 4.63642 | 1952 ft | 174 kts | 245° |
| 2026-05-07 19:30 | 50.94613 | 4.61936 | 1726 ft | 162 kts | 245° |
| 2026-05-07 19:30 | 50.94163 | 4.60376 | 1509 ft | 153 kts | 245° |
| 2026-05-07 19:30 | 50.93719 | 4.58828 | 1312 ft | 154 kts | 245° |
| 2026-05-07 19:30 | 50.93281 | 4.57300 | 1098 ft | 151 kts | 245° |
| 2026-05-07 19:31 | 50.92844 | 4.55785 | 898 ft | 152 kts | 246° |
| 2026-05-07 19:31 | 50.92407 | 4.54268 | 683 ft | 151 kts | 245° |
| 2026-05-07 19:31 | 50.91966 | 4.52763 | 489 ft | 150 kts | 246° |
| 2026-05-07 19:31 | 50.91538 | 4.51273 | 352 ft | 149 kts | 246° |
| 2026-05-07 19:32 | 50.91105 | 4.49774 | 166 ft | 150 kts | 246° |
| 2026-05-07 19:32 | 50.90692 | 4.48336 | 123 ft | 130 kts | 245° |
| 2026-05-07 19:32 | 50.90396 | 4.47313 | 125 ft | 62 kts | 245° |
| 2026-05-07 19:32 | 50.90288 | 4.46940 | 126 ft | 22 kts | 245° |
| 2026-05-07 19:33 | 50.90285 | 4.46751 | 127 ft | 16 kts | 292° |
| 2026-05-07 19:33 | 50.90329 | 4.46605 | 129 ft | 13 kts | 296° |
| 2026-05-07 19:33 | 50.90358 | 4.46505 | 133 ft | 8 kts | 289° |
| 2026-05-07 19:33 | 50.90362 | 4.46441 | 136 ft | 5 kts | 267° |
| 2026-05-07 19:34 | 50.90354 | 4.46382 | 136 ft | 5 kts | 253° |
| 2026-05-07 19:34 | 50.90340 | 4.46327 | 137 ft | 5 kts | 246° |
| 2026-05-07 19:34 | 50.90325 | 4.46273 | 138 ft | 5 kts | 245° |
| 2026-05-07 19:34 | 50.90309 | 4.46220 | 138 ft | 5 kts | 245° |
| 2026-05-07 19:35 | 50.90294 | 4.46167 | 139 ft | 5 kts | 245° |
| 2026-05-07 19:35 | 50.90279 | 4.46114 | 140 ft | 5 kts | 245° |
| 2026-05-07 19:35 | 50.90264 | 4.46061 | 140 ft | 5 kts | 245° |
| 2026-05-07 19:35 | 50.90249 | 4.46009 | 141 ft | 5 kts | 245° |
| 2026-05-07 19:36 | 50.90249 | 4.45972 | 141 ft | 3 kts | 300° |
| 2026-05-07 19:36 | 50.90268 | 4.45950 | 141 ft | 4 kts | 330° |
| 2026-05-07 19:36 | 50.90293 | 4.45932 | 141 ft | 4 kts | 336° |
| 2026-05-07 19:36 | 50.90310 | 4.45920 | 141 ft | 1 kts | 336° |
| 2026-05-07 19:37 | 50.90319 | 4.45913 | 141 ft | 1 kts | 336° |
| 2026-05-07 19:37 | 50.90324 | 4.45910 | 141 ft | 0 kts | 336° |